Time;durP1;ratioP1;P1;durP2;ratioP2;P2;SDS_P1;SDS_P2;PMS_P1;PMS_P2;Temp;Humidity;BMP_temperature;BMP_pressure;BME280_temperature;BME280_humidity;BME280_pressure;Samples;Min_cycle;Max_cycle;Signal;HPM_P1;HPM_P2
2023/07/09 00:02:03;;;;;;;5.40;3.50;;;;;;;18.37;42.91;101397.80;105199;1287;61240;-84
2023/07/09 00:04:49;;;;;;;4.10;3.70;;;;;;;18.28;42.99;101391.86;105090;1287;73483;-84
2023/07/09 00:07:36;;;;;;;8.10;3.30;;;;;;;18.18;43.09;101394.13;105018;1287;71371;-86
2023/07/09 00:10:22;;;;;;;4.90;3.60;;;;;;;18.14;43.34;101393.22;105069;1287;71210;-86
2023/07/09 00:13:09;;;;;;;5.30;3.50;;;;;;;18.13;43.36;101394.68;105162;1287;61189;-86
2023/07/09 00:15:59;;;;;;;4.30;3.80;;;;;;;18.10;43.52;101400.16;105237;1287;61262;-86
2023/07/09 00:18:48;;;;;;;4.40;3.70;;;;;;;18.08;43.65;101396.05;105084;1289;76028;-86
2023/07/09 00:21:35;;;;;;;7.60;3.50;;;;;;;18.02;43.79;101389.98;104976;1287;69755;-86
2023/07/09 00:24:22;;;;;;;5.80;3.70;;;;;;;17.96;43.88;101391.79;105111;1288;71605;-86
2023/07/09 00:27:09;;;;;;;4.10;3.60;;;;;;;17.90;44.02;101391.79;105086;1287;61590;-85
2023/07/09 00:29:55;;;;;;;4.20;3.90;;;;;;;17.87;44.07;101395.91;105185;1287;61042;-85
2023/07/09 00:32:43;;;;;;;4.10;3.80;;;;;;;17.84;44.14;101396.16;105058;1290;74283;-86
2023/07/09 00:35:30;;;;;;;5.60;4.10;;;;;;;17.86;44.25;101394.20;105123;1287;68958;-86
2023/07/09 00:38:21;;;;;;;5.20;4.10;;;;;;;17.85;44.34;101394.23;104797;1287;73982;-86
2023/07/09 00:41:18;;;;;;;5.70;4.20;;;;;;;17.84;44.47;101396.52;104867;1287;61378;-86
2023/07/09 00:44:43;;;;;;;5.30;4.40;;;;;;;17.79;44.55;101392.33;105377;1287;61330;-85
2023/07/09 00:47:51;;;;;;;6.90;4.50;;;;;;;17.73;44.67;101396.02;104546;1294;76050;-86
2023/07/09 00:50:52;;;;;;;5.20;4.70;;;;;;;17.69;44.86;101400.16;104534;1296;67227;-86
2023/07/09 00:53:45;;;;;;;5.20;4.00;;;;;;;17.64;44.95;101402.63;104386;1294;72610;-86
2023/07/09 00:56:38;;;;;;;8.80;4.20;;;;;;;17.58;45.10;101400.16;104445;1294;61367;-86
2023/07/09 00:59:31;;;;;;;5.70;4.20;;;;;;;17.55;45.23;101403.94;104486;1292;61070;-86
2023/07/09 01:02:23;;;;;;;8.80;4.60;;;;;;;17.52;45.31;101401.39;104486;1292;74584;-86
2023/07/09 01:05:10;;;;;;;6.50;4.70;;;;;;;17.49;45.46;101397.67;104405;1294;68889;-86
2023/07/09 01:07:58;;;;;;;4.50;3.80;;;;;;;17.46;45.50;101402.13;104520;1293;71870;-86
2023/07/09 01:10:44;;;;;;;4.50;3.60;;;;;;;17.45;45.67;101406.69;104518;1294;61429;-86
2023/07/09 01:13:35;;;;;;;4.90;4.40;;;;;;;17.38;45.72;101402.89;104498;1293;61264;-87
2023/07/09 01:16:24;;;;;;;4.50;4.10;;;;;;;17.35;45.86;101399.67;104472;1294;73270;-86
2023/07/09 01:19:13;;;;;;;4.70;3.80;;;;;;;17.33;45.93;101401.14;104389;1295;67346;-84
2023/07/09 01:22:00;;;;;;;4.90;3.70;;;;;;;17.32;46.01;101403.28;104737;1293;71258;-84
2023/07/09 01:24:54;;;;;;;5.40;4.50;;;;;;;17.32;46.19;101400.86;104668;1290;61172;-84
2023/07/09 01:27:45;;;;;;;7.20;4.00;;;;;;;17.17;46.36;101406.52;104781;1288;61155;-84
2023/07/09 01:30:36;;;;;;;4.50;4.10;;;;;;;17.11;46.50;101412.67;104760;1287;73424;-83
2023/07/09 01:33:26;;;;;;;4.50;4.10;;;;;;;17.08;46.50;101417.27;104894;1287;67452;-84
2023/07/09 01:36:23;;;;;;;4.70;4.30;;;;;;;17.06;46.73;101418.20;104873;1288;73110;-84
2023/07/09 01:39:09;;;;;;;4.50;4.10;;;;;;;17.04;46.76;101424.02;104882;1287;61167;-84
2023/07/09 01:41:56;;;;;;;3.80;3.50;;;;;;;17.00;46.89;101417.86;104884;1287;59311;-84
2023/07/09 01:44:45;;;;;;;4.00;3.60;;;;;;;16.97;46.80;101421.42;104910;1288;73195;-84
2023/07/09 01:47:32;;;;;;;4.20;3.70;;;;;;;16.92;46.90;101416.55;104846;1287;67450;-84
2023/07/09 01:50:19;;;;;;;7.00;4.60;;;;;;;16.89;46.96;101415.24;105061;1287;71507;-83
2023/07/09 01:53:08;;;;;;;4.10;3.70;;;;;;;16.86;47.07;101415.14;105038;1287;61285;-84
2023/07/09 01:55:55;;;;;;;5.80;4.10;;;;;;;16.86;47.12;101418.10;105134;1287;59785;-84
2023/07/09 01:58:42;;;;;;;4.20;3.90;;;;;;;16.84;47.29;101418.84;105194;1287;73269;-84
2023/07/09 02:01:30;;;;;;;4.00;3.60;;;;;;;16.79;47.34;101418.82;105129;1287;68366;-84
2023/07/09 02:04:18;;;;;;;5.30;4.30;;;;;;;16.76;47.38;101417.68;105131;1287;75391;-84
2023/07/09 02:07:04;;;;;;;6.00;4.80;;;;;;;16.72;47.49;101418.34;105134;1287;59178;-84
2023/07/09 02:09:51;;;;;;;5.00;4.40;;;;;;;16.71;47.60;101423.23;105015;1287;61217;-83
2023/07/09 02:12:38;;;;;;;4.30;3.90;;;;;;;16.70;47.72;101422.05;105214;1287;73658;-84
2023/07/09 02:15:24;;;;;;;4.80;4.40;;;;;;;16.67;47.81;101419.16;105165;1287;71409;-84
2023/07/09 02:18:15;;;;;;;5.60;4.40;;;;;;;16.60;47.94;101419.02;105097;1290;73562;-84
2023/07/09 02:21:01;;;;;;;5.80;4.50;;;;;;;16.45;48.06;101416.64;105192;1287;61264;-86
2023/07/09 02:23:47;;;;;;;4.30;3.90;;;;;;;16.41;48.17;101415.02;105061;1287;59935;-86
2023/07/09 02:26:33;;;;;;;5.70;4.30;;;;;;;16.42;48.21;101420.03;105024;1287;74547;-84
2023/07/09 02:29:20;;;;;;;6.20;3.70;;;;;;;16.42;48.23;101422.30;105134;1287;70253;-84
2023/07/09 02:32:06;;;;;;;5.70;4.70;;;;;;;16.38;48.37;101423.62;105140;1287;71457;-84
2023/07/09 02:34:54;;;;;;;7.50;4.50;;;;;;;16.31;48.56;101427.13;105148;1287;61307;-84
2023/07/09 02:37:40;;;;;;;6.60;4.40;;;;;;;16.30;48.57;101431.33;105198;1287;59632;-84
2023/07/09 02:40:26;;;;;;;5.20;4.70;;;;;;;16.30;48.69;101432.55;105079;1287;74968;-84
2023/07/09 02:43:13;;;;;;;6.60;4.60;;;;;;;16.29;48.73;101434.66;105152;1287;70046;-84
2023/07/09 02:45:59;;;;;;;5.30;4.40;;;;;;;16.25;48.92;101438.23;105161;1287;72520;-84
2023/07/09 02:48:45;;;;;;;7.70;4.70;;;;;;;16.21;48.99;101435.39;105177;1287;61326;-84
2023/07/09 02:51:32;;;;;;;9.00;4.60;;;;;;;16.18;49.07;101436.68;105219;1287;59499;-84
2023/07/09 02:54:18;;;;;;;5.10;4.60;;;;;;;16.18;49.09;101437.36;105066;1287;72168;-84
2023/07/09 02:57:05;;;;;;;4.70;4.20;;;;;;;16.18;49.00;101439.98;105046;1287;68575;-84
2023/07/09 02:59:52;;;;;;;6.50;4.00;;;;;;;16.16;49.19;101443.52;105073;1287;73410;-84
2023/07/09 03:02:38;;;;;;;5.80;4.60;;;;;;;16.14;49.24;101445.30;105141;1287;61284;-84
2023/07/09 03:05:24;;;;;;;5.10;4.20;;;;;;;16.12;49.31;101441.90;105214;1287;60322;-84
2023/07/09 03:08:10;;;;;;;5.00;4.20;;;;;;;16.09;49.39;101441.12;105219;1288;73837;-84
2023/07/09 03:10:57;;;;;;;5.20;4.20;;;;;;;16.06;49.43;101442.23;105219;1287;67379;-84
2023/07/09 03:13:43;;;;;;;4.30;3.90;;;;;;;16.06;49.47;101448.68;105056;1287;71371;-84
2023/07/09 03:16:32;;;;;;;5.10;4.40;;;;;;;16.01;49.50;101448.09;105108;1288;61139;-84
2023/07/09 03:19:19;;;;;;;4.60;4.20;;;;;;;16.00;49.68;101447.77;105149;1287;61164;-84
2023/07/09 03:22:05;;;;;;;5.80;4.50;;;;;;;16.00;49.70;101451.08;105163;1287;73343;-84
2023/07/09 03:24:51;;;;;;;5.50;5.00;;;;;;;16.01;49.80;101447.40;105055;1287;69936;-84
2023/07/09 03:27:38;;;;;;;14.50;5.30;;;;;;;16.01;49.94;101448.46;105230;1287;72062;-84
2023/07/09 03:30:24;;;;;;;4.80;4.40;;;;;;;16.01;50.01;101448.64;105030;1287;59283;-84
2023/07/09 03:33:13;;;;;;;4.60;4.00;;;;;;;16.05;50.05;101453.57;101500;1287;5003217;-84
2023/07/09 03:35:59;;;;;;;5.50;4.20;;;;;;;16.07;50.15;101455.27;105148;1287;73378;-84
2023/07/09 03:38:46;;;;;;;7.00;4.30;;;;;;;16.03;50.31;101453.46;105038;1287;67876;-84
2023/07/09 03:41:33;;;;;;;5.40;4.20;;;;;;;16.05;50.36;101451.31;105125;1287;71484;-84
2023/07/09 03:44:19;;;;;;;4.90;4.00;;;;;;;16.04;50.38;101447.52;105067;1287;59902;-84
2023/07/09 03:47:06;;;;;;;4.80;4.20;;;;;;;16.06;50.53;101454.77;105139;1287;61824;-85
2023/07/09 03:49:53;;;;;;;6.20;4.70;;;;;;;16.12;50.60;101457.40;105117;1288;74460;-84
2023/07/09 03:52:39;;;;;;;4.40;4.00;;;;;;;16.18;50.70;101463.30;105093;1292;67511;-84
2023/07/09 03:55:26;;;;;;;4.50;4.10;;;;;;;16.21;50.76;101467.22;105241;1287;71446;-84
2023/07/09 03:58:13;;;;;;;4.80;4.10;;;;;;;16.23;50.75;101472.02;105214;1287;61258;-84
2023/07/09 04:00:59;;;;;;;;;;;;;;;16.27;50.96;101473.87;105147;1287;61335;-84
2023/07/09 04:03:45;;;;;;;5.90;4.20;;;;;;;16.28;51.03;101476.80;105204;1287;73218;-84
2023/07/09 04:06:31;;;;;;;6.10;4.50;;;;;;;16.31;51.01;101476.38;105199;1290;70017;-84
2023/07/09 04:09:18;;;;;;;5.50;4.50;;;;;;;16.37;51.06;101478.30;105084;1290;71142;-84
2023/07/09 04:12:05;;;;;;;8.20;4.90;;;;;;;16.44;51.22;101478.45;104996;1287;61272;-84
2023/07/09 04:14:51;;;;;;;5.00;3.90;;;;;;;16.56;51.34;101484.94;105092;1287;61262;-85
2023/07/09 04:17:38;;;;;;;3.90;3.60;;;;;;;16.70;51.51;101483.86;104998;1290;73193;-85
2023/07/09 04:20:24;;;;;;;;;;;;;;;16.75;51.53;101486.16;105169;1287;67369;-84
2023/07/09 04:23:11;;;;;;;;;;;;;;;16.75;51.67;101486.33;105221;1289;71972;-84
2023/07/09 04:25:57;;;;;;;3.70;3.20;;;;;;;16.79;51.80;101488.83;105071;1287;61304;-85
2023/07/09 04:28:43;;;;;;;3.90;3.40;;;;;;;16.90;51.89;101493.94;105198;1287;61020;-85
2023/07/09 04:31:49;;;;;;;5.50;4.20;;;;;;;16.98;51.92;101493.70;105209;1287;73154;-85
2023/07/09 04:34:43;;;;;;;4.50;3.50;;;;;;;17.06;52.13;101498.50;105147;1287;67309;-87
2023/07/09 04:37:31;;;;;;;3.50;3.00;;;;;;;17.16;52.04;101498.56;105012;1287;74641;-86
2023/07/09 04:40:19;;;;;;;3.40;3.10;;;;;;;17.27;52.13;101503.65;105186;1287;62279;-87
2023/07/09 04:43:05;;;;;;;7.40;3.40;;;;;;;17.36;52.23;101500.74;105059;1287;60155;-86
2023/07/09 04:45:51;;;;;;;3.80;3.30;;;;;;;17.45;52.27;101494.38;105074;1287;72861;-86
2023/07/09 04:48:38;;;;;;;8.30;3.40;;;;;;;17.53;52.40;101492.19;105183;1287;70156;-86
2023/07/09 04:51:24;;;;;;;6.70;3.20;;;;;;;17.61;52.42;101494.75;105160;1287;71358;-86
2023/07/09 04:54:12;;;;;;;4.40;2.70;;;;;;;17.67;52.45;101495.98;105153;1287;61646;-86
2023/07/09 04:56:58;;;;;;;3.50;2.40;;;;;;;17.76;52.49;101492.55;105089;1287;61320;-86
2023/07/09 04:59:44;;;;;;;4.00;2.80;;;;;;;17.83;52.40;101494.40;105047;1287;74302;-86
2023/07/09 05:02:32;;;;;;;8.30;2.60;;;;;;;17.90;52.56;101502.04;105029;1289;67734;-87
2023/07/09 05:05:18;;;;;;;3.60;2.40;;;;;;;18.01;52.70;101501.34;105352;1287;73423;-87
2023/07/09 05:08:04;;;;;;;3.10;2.30;;;;;;;18.17;52.85;101496.61;104980;1287;60152;-86
2023/07/09 05:10:52;;;;;;;;;;;;;;;18.49;52.75;101492.70;105149;1287;61387;-87
2023/07/09 05:13:39;;;;;;;4.30;2.20;;;;;;;19.00;52.64;101494.89;105171;1287;72545;-87
2023/07/09 05:16:25;;;;;;;2.90;2.10;;;;;;;19.57;52.50;101499.00;105109;1287;68621;-87
2023/07/09 05:19:11;;;;;;;4.40;2.40;;;;;;;20.25;52.33;101501.99;105100;1287;74837;-87
2023/07/09 05:21:59;;;;;;;;;;;;;;;20.92;51.97;101510.44;105257;1287;59143;-88
2023/07/09 05:24:45;;;;;;;2.40;2.10;;;;;;;21.53;51.80;101507.25;105152;1287;61499;-88
2023/07/09 05:27:42;;;;;;;4.00;2.20;;;;;;;22.11;51.44;101510.56;105246;1287;74407;-88
2023/07/09 05:30:28;;;;;;;2.20;1.80;;;;;;;22.80;51.37;101513.88;104942;1287;67338;-87
2023/07/09 05:33:34;;;;;;;;;;;;;;;23.49;50.98;101520.33;105116;1292;74102;-87
2023/07/09 05:36:39;;;;;;;2.80;1.90;;;;;;;24.08;50.53;101525.92;105312;1287;61118;-86
2023/07/09 05:40:27;;;;;;;3.20;1.60;;;;;;;24.73;50.39;101523.48;105188;1287;59307;-87
2023/07/09 05:43:58;;;;;;;1.80;1.50;;;;;;;25.24;50.01;101520.86;105320;1287;74581;-87
2023/07/09 05:47:21;;;;;;;3.50;1.60;;;;;;;25.76;49.50;101521.73;105309;1287;67546;-87
2023/07/09 05:50:44;;;;;;;3.60;1.50;;;;;;;26.11;49.29;101520.83;105285;1287;71168;-87
2023/07/09 05:53:33;;;;;;;3.00;1.70;;;;;;;26.49;48.99;101514.23;105207;1287;61283;-86
2023/07/09 05:56:19;;;;;;;1.80;1.40;;;;;;;26.95;48.77;101514.66;105163;1287;61164;-87
2023/07/09 05:59:26;;;;;;;1.90;1.50;;;;;;;27.43;48.55;101514.58;105051;1287;73353;-86
2023/07/09 06:02:18;;;;;;;4.80;2.20;;;;;;;27.94;48.27;101516.52;105175;1287;69955;-86
2023/07/09 06:05:36;;;;;;;4.50;1.90;;;;;;;28.37;47.80;101516.24;105144;1289;71169;-86
2023/07/09 06:08:50;;;;;;;4.70;1.50;;;;;;;28.71;47.26;101516.21;105156;1287;61165;-89
2023/07/09 06:12:14;;;;;;;2.50;1.40;;;;;;;28.95;46.84;101520.39;105224;1287;61185;-86
2023/07/09 06:15:37;;;;;;;1.30;1.20;;;;;;;29.18;46.21;101521.98;105304;1287;73353;-86
2023/07/09 06:18:45;;;;;;;5.40;1.40;;;;;;;29.26;45.86;101522.02;105245;1287;67193;-86
2023/07/09 06:21:52;;;;;;;2.20;1.30;;;;;;;29.30;45.48;101532.16;105279;1291;71425;-86
2023/07/09 06:25:18;;;;;;;2.20;1.40;;;;;;;29.45;45.13;101530.10;105294;1287;61217;-86
2023/07/09 06:28:28;;;;;;;3.40;1.50;;;;;;;29.81;44.66;101528.05;105249;1287;61234;-86
2023/07/09 06:31:31;;;;;;;1.50;1.40;;;;;;;30.28;44.04;101533.70;105187;1287;76055;-86
2023/07/09 06:34:19;;;;;;;3.40;1.30;;;;;;;30.74;43.42;101530.95;105267;1287;67278;-86
2023/07/09 06:37:53;;;;;;;3.90;1.60;;;;;;;31.02;42.82;101530.88;105201;1287;71180;-86
2023/07/09 06:40:41;;;;;;;2.80;1.20;;;;;;;31.70;42.72;101531.33;105322;1287;63629;-86
2023/07/09 06:43:38;;;;;;;1.90;1.40;;;;;;;32.45;42.09;101532.19;105146;1287;63996;-86
2023/07/09 06:46:45;;;;;;;3.20;1.40;;;;;;;33.07;41.34;101534.83;105180;1287;74409;-86
2023/07/09 06:49:33;;;;;;;2.90;1.30;;;;;;;33.75;41.15;101537.14;105219;1287;70040;-87
2023/07/09 06:52:19;;;;;;;2.20;1.50;;;;;;;34.35;40.52;101531.15;105244;1287;72932;-86
2023/07/09 06:55:07;;;;;;;3.60;1.30;;;;;;;34.46;40.01;101526.77;105125;1290;61287;-86
2023/07/09 06:57:54;;;;;;;7.90;1.40;;;;;;;34.55;39.89;101531.60;105187;1287;62903;-86
2023/07/09 07:00:45;;;;;;;3.70;1.30;;;;;;;34.65;39.54;101533.48;105149;1287;74052;-86
2023/07/09 07:03:33;;;;;;;1.60;1.30;;;;;;;34.84;39.03;101533.56;104882;1292;284287;-86
2023/07/09 07:06:20;;;;;;;1.80;1.40;;;;;;;35.46;38.03;101536.89;105223;1289;74623;-85
2023/07/09 07:09:06;;;;;;;39.50;12.80;;;;;;;36.10;36.95;101536.54;105020;1287;61701;-86
2023/07/09 07:11:52;;;;;;;12.20;3.80;;;;;;;36.69;36.40;101536.10;105118;1287;59400;-85
2023/07/09 07:15:19;;;;;;;1.60;1.50;;;;;;;37.57;35.80;101542.83;105271;1287;73049;-87
2023/07/09 07:19:05;;;;;;;3.40;1.60;;;;;;;38.56;35.16;101541.29;105184;1287;67247;-87
2023/07/09 07:22:16;;;;;;;2.70;1.70;;;;;;;39.41;34.41;101540.34;105084;1287;71393;-87
2023/07/09 07:25:25;;;;;;;1.40;1.30;;;;;;;40.17;33.65;101541.80;104930;1287;61187;-87
2023/07/09 07:28:34;;;;;;;1.90;1.40;;;;;;;40.25;33.36;101538.73;105066;1287;61166;-87
2023/07/09 07:31:21;;;;;;;1.70;1.60;;;;;;;39.69;32.98;101539.48;104922;1287;76039;-86
2023/07/09 07:34:07;;;;;;;1.50;1.30;;;;;;;39.09;32.59;101539.05;104809;1287;70093;-86
2023/07/09 07:36:53;;;;;;;2.20;1.30;;;;;;;38.76;31.93;101531.14;104727;1287;72291;-86
2023/07/09 07:39:42;;;;;;;4.50;1.00;;;;;;;39.24;30.93;101529.66;104756;1287;61172;-86
2023/07/09 07:42:28;;;;;;;3.40;1.30;;;;;;;38.48;29.98;101527.64;104786;1287;61211;-86
2023/07/09 07:45:51;;;;;;;1.20;1.10;;;;;;;37.53;30.15;101522.11;104878;1287;75992;-86
2023/07/09 07:48:38;;;;;;;2.90;1.20;;;;;;;37.18;29.45;101517.14;105253;1287;67667;-87
2023/07/09 07:51:25;;;;;;;1.80;1.30;;;;;;;38.23;28.96;101513.64;105203;1287;71389;-86
2023/07/09 07:54:40;;;;;;;1.60;1.50;;;;;;;39.92;28.21;101516.40;104916;1292;63824;-87
2023/07/09 07:57:48;;;;;;;2.90;1.70;;;;;;;42.04;27.39;101520.45;105222;1287;61262;-87
2023/07/09 08:00:34;;;;;;;4.00;1.70;;;;;;;43.50;26.87;101517.00;104973;1290;73274;-87
2023/07/09 08:03:21;;;;;;;1.90;1.60;;;;;;;44.81;26.18;101517.60;104586;1287;202721;-87
2023/07/09 08:06:16;;;;;;;3.90;1.70;;;;;;;45.88;25.99;101520.02;104644;1287;71985;-88
2023/07/09 08:09:23;;;;;;;2.40;2.20;;;;;;;46.98;25.43;101520.30;104825;1287;61948;-89
2023/07/09 08:12:16;;;;;;;2.20;2.10;;;;;;;47.98;24.92;101520.58;104829;1287;61422;-88
2023/07/09 08:15:06;;;;;;;3.70;3.10;;;;;;;48.91;24.39;101520.36;104864;1287;64576;-89
2023/07/09 08:17:52;;;;;;;2.80;2.70;;;;;;;49.61;23.66;101519.17;104781;1287;61414;-88
2023/07/09 08:20:44;;;;;;;4.30;3.80;;;;;;;50.12;22.95;101519.59;104582;1287;62652;-87
2023/07/09 08:23:30;;;;;;;4.50;4.20;;;;;;;50.48;22.29;101519.58;104980;1287;59429;-87
2023/07/09 08:26:16;;;;;;;4.60;4.40;;;;;;;50.63;21.57;101515.89;105192;1287;59395;-87
2023/07/09 08:29:03;;;;;;;5.40;5.10;;;;;;;50.83;21.18;101516.23;105158;1287;65836;-87
2023/07/09 08:31:49;;;;;;;6.70;6.10;;;;;;;51.22;20.56;101515.62;105057;1287;61812;-86
2023/07/09 08:34:37;;;;;;;6.10;5.70;;;;;;;51.36;19.97;101512.89;105141;1287;66711;-86
2023/07/09 08:37:23;;;;;;;7.10;6.70;;;;;;;51.74;19.22;101507.57;105177;1287;61115;-87
2023/07/09 08:40:15;;;;;;;7.10;6.60;;;;;;;52.11;18.63;101510.37;105150;1287;59623;-87
2023/07/09 08:43:18;;;;;;;7.20;6.80;;;;;;;52.53;18.51;101510.50;105143;1288;64825;-87
2023/07/09 08:46:32;;;;;;;7.80;7.50;;;;;;;52.86;17.72;101508.85;105123;1287;61055;-87
2023/07/09 08:49:27;;;;;;;7.10;6.80;;;;;;;53.00;16.94;101508.12;105063;1287;62555;-87
2023/07/09 08:52:38;;;;;;;7.90;7.50;;;;;;;52.88;16.49;101507.84;105183;1287;61603;-85
2023/07/09 08:55:29;;;;;;;8.20;7.80;;;;;;;52.72;16.12;101505.56;105072;1287;62006;-85
2023/07/09 08:58:24;;;;;;;8.00;7.50;;;;;;;52.99;15.77;101503.40;105114;1287;64672;-87
2023/07/09 09:01:23;;;;;;;8.00;7.60;;;;;;;52.90;15.22;101504.00;105062;1287;61383;-86
2023/07/09 09:04:38;;;;;;;7.20;6.90;;;;;;;51.68;14.91;101502.35;105025;1287;63665;-86
2023/07/09 09:07:44;;;;;;;5.50;5.00;;;;;;;48.22;15.00;101495.11;104746;1293;61153;-86
2023/07/09 09:10:38;;;;;;;3.80;3.60;;;;;;;44.85;15.19;101498.59;104710;1294;59734;-86
2023/07/09 09:13:28;;;;;;;5.10;3.10;;;;;;;42.03;15.40;101485.99;104778;1294;75129;-86
2023/07/09 09:16:24;;;;;;;3.50;2.60;;;;;;;40.01;15.54;101481.95;104701;1294;67218;-87
2023/07/09 09:19:22;;;;;;;1.80;1.70;;;;;;;38.49;15.91;101474.01;104793;1293;71413;-86
2023/07/09 09:22:15;;;;;;;3.20;1.80;;;;;;;37.08;15.76;101481.97;104883;1294;61282;-85
2023/07/09 09:25:28;;;;;;;2.50;1.70;;;;;;;35.84;16.23;101474.91;104735;1294;59323;-85
2023/07/09 09:28:14;;;;;;;1.90;1.80;;;;;;;34.63;16.50;101470.63;104406;1302;73218;-85
2023/07/09 09:31:01;;;;;;;2.00;1.70;;;;;;;33.62;16.89;101470.92;104212;1300;68285;-85
2023/07/09 09:33:49;;;;;;;2.50;1.80;;;;;;;32.91;17.23;101483.36;104280;1300;71187;-85
2023/07/09 09:36:36;;;;;;;1.60;1.50;;;;;;;32.23;17.37;101476.45;104252;1301;61409;-84
2023/07/09 09:39:25;;;;;;;2.00;1.80;;;;;;;31.69;17.74;101477.94;104171;1301;61345;-85
2023/07/09 09:42:11;;;;;;;3.20;2.00;;;;;;;31.15;17.87;101474.44;104348;1301;73291;-87
2023/07/09 09:44:58;;;;;;;2.20;2.00;;;;;;;30.64;18.33;101470.29;104403;1296;68484;-87
2023/07/09 09:47:45;;;;;;;;;;;;;;;30.21;18.54;101467.89;104526;1294;71302;-88
2023/07/09 09:50:33;;;;;;;2.40;2.00;;;;;;;29.94;18.73;101464.33;104639;1296;61109;-87
2023/07/09 09:53:21;;;;;;;;;;;;;;;29.78;19.09;101471.77;104480;1295;59397;-88
2023/07/09 09:56:18;;;;;;;1.90;1.50;;;;;;;29.55;19.15;101471.50;104631;1296;74778;-88
2023/07/09 09:59:27;;;;;;;2.40;2.00;;;;;;;29.35;19.47;101467.77;104539;1296;68445;-88
2023/07/09 10:02:19;;;;;;;1.90;1.70;;;;;;;29.16;19.50;101462.14;104517;1295;71332;-87
2023/07/09 10:05:12;;;;;;;1.60;1.50;;;;;;;28.86;19.86;101460.60;104843;1287;59644;-87
2023/07/09 10:08:24;;;;;;;1.90;1.50;;;;;;;28.67;20.07;101462.61;105166;1287;61331;-88
2023/07/09 10:11:32;;;;;;;2.70;1.90;;;;;;;28.54;20.39;101458.01;105247;1287;73669;-87
2023/07/09 10:14:24;;;;;;;2.00;1.80;;;;;;;28.49;20.48;101453.09;105165;1287;67805;-87
2023/07/09 10:17:20;;;;;;;3.00;1.90;;;;;;;28.42;20.87;101457.70;105262;1289;72528;-86
2023/07/09 10:20:35;;;;;;;3.30;1.40;;;;;;;28.33;21.04;101458.21;105535;1287;59254;-86
2023/07/09 10:23:43;;;;;;;1.90;1.80;;;;;;;28.21;21.44;101463.95;105278;1287;61110;-87
2023/07/09 10:26:36;;;;;;;1.80;1.70;;;;;;;28.13;21.58;101458.67;105094;1287;75186;-86
2023/07/09 10:29:41;;;;;;;4.10;1.80;;;;;;;27.95;21.75;101454.92;105095;1287;67395;-86
2023/07/09 10:32:56;;;;;;;2.90;1.70;;;;;;;27.84;22.04;101454.02;105168;1287;72401;-86
2023/07/09 10:36:09;;;;;;;5.70;1.60;;;;;;;27.84;22.30;101449.23;105351;1287;61233;-87
2023/07/09 10:39:15;;;;;;;2.70;2.00;;;;;;;27.81;22.34;101444.13;105258;1292;60487;-86
2023/07/09 10:42:03;;;;;;;4.90;1.50;;;;;;;27.77;22.81;101444.59;105151;1287;73357;-87
2023/07/09 10:45:12;;;;;;;3.60;2.00;;;;;;;27.76;23.06;101446.11;105220;1291;67264;-86
2023/07/09 10:48:18;;;;;;;45.20;3.80;;;;;;;27.68;23.27;101436.03;105266;1290;71377;-87
2023/07/09 10:51:17;;;;;;;1.90;1.70;;;;;;;27.75;23.58;101438.58;105221;1287;61641;-87
2023/07/09 10:54:34;;;;;;;2.20;1.50;;;;;;;27.83;23.85;101444.88;105203;1287;61291;-86
2023/07/09 10:58:22;;;;;;;2.30;2.10;;;;;;;27.84;23.68;101450.41;105253;1287;73377;-87
2023/07/09 11:01:14;;;;;;;1.50;1.40;;;;;;;27.84;23.74;101448.31;104650;1293;68173;-87
2023/07/09 11:04:06;;;;;;;3.00;1.90;;;;;;;27.87;23.85;101447.60;104824;1293;71217;-86
2023/07/09 11:06:55;;;;;;;7.10;2.00;;;;;;;27.87;23.87;101447.73;104778;1294;61272;-87
2023/07/09 11:09:47;;;;;;;1.70;1.60;;;;;;;27.86;23.86;101452.38;104785;1293;61196;-86
2023/07/09 11:12:42;;;;;;;2.10;1.70;;;;;;;27.77;23.92;101453.30;104620;1294;75910;-86
2023/07/09 11:15:35;;;;;;;4.70;2.10;;;;;;;27.66;23.94;101451.77;104826;1293;67343;-86
2023/07/09 11:18:31;;;;;;;2.80;2.00;;;;;;;27.62;24.41;101449.41;104792;1292;75251;-87
2023/07/09 11:21:17;;;;;;;4.20;1.70;;;;;;;27.67;24.40;101448.54;104889;1292;61106;-87
2023/07/09 11:24:06;;;;;;;2.50;1.70;;;;;;;27.66;24.61;101449.30;104754;1294;61485;-87
2023/07/09 11:26:53;;;;;;;3.40;1.60;;;;;;;27.70;24.71;101445.98;104684;1293;73204;-87
2023/07/09 11:29:48;;;;;;;4.60;1.80;;;;;;;27.78;24.66;101449.84;104786;1292;68074;-86
2023/07/09 11:32:57;;;;;;;2.50;2.10;;;;;;;27.81;24.63;101451.76;104629;1294;73198;-86
2023/07/09 11:36:08;;;;;;;5.80;2.10;;;;;;;27.79;24.68;101441.98;105090;1287;59303;-87
2023/07/09 11:38:55;;;;;;;2.30;2.00;;;;;;;27.84;24.90;101443.36;104764;1293;61177;-86
2023/07/09 11:41:46;;;;;;;11.90;6.50;;;;;;;27.87;24.90;101441.55;104665;1294;73633;-87
2023/07/09 11:44:33;;;;;;;5.20;2.90;;;;;;;27.91;24.97;101441.74;105720;1293;69013;-86
2023/07/09 11:47:27;;;;;;;43.70;4.50;;;;;;;27.94;24.92;101439.60;105732;1294;71520;-86
2023/07/09 11:50:24;;;;;;;2.30;2.10;;;;;;;27.96;25.02;101437.09;105075;1294;61308;-86
2023/07/09 11:53:42;;;;;;;2.10;1.90;;;;;;;28.00;25.11;101434.50;104873;1294;61343;-86
2023/07/09 11:56:28;;;;;;;3.40;1.90;;;;;;;28.02;24.98;101432.06;104254;1302;73914;-86
2023/07/09 11:59:14;;;;;;;1.80;1.50;;;;;;;27.97;24.92;101432.43;104221;1299;70173;-86
2023/07/09 12:02:01;;;;;;;1.70;1.60;;;;;;;27.96;25.14;101431.98;104370;1300;72556;-86
2023/07/09 12:04:50;;;;;;;1.80;1.70;;;;;;;27.97;25.12;101430.86;104198;1300;59195;-87
2023/07/09 12:07:37;;;;;;;2.70;2.20;;;;;;;27.98;25.24;101427.24;104314;1300;59820;-84
2023/07/09 12:10:32;;;;;;;3.70;1.50;;;;;;;28.02;25.30;101425.52;104183;1300;73432;-85
2023/07/09 12:13:18;;;;;;;2.40;1.60;;;;;;;28.06;25.54;101415.06;104313;1302;67229;-85
2023/07/09 12:16:18;;;;;;;1.60;1.50;;;;;;;28.16;25.75;101411.99;104406;1296;71367;-84
2023/07/09 12:19:05;;;;;;;1.70;1.40;;;;;;;28.19;25.63;101407.86;104595;1295;59555;-85
2023/07/09 12:21:55;;;;;;;1.60;1.50;;;;;;;28.20;25.85;101408.33;104579;1296;61275;-84
2023/07/09 12:24:43;;;;;;;2.00;1.50;;;;;;;28.24;25.71;101413.19;104547;1296;73423;-84
2023/07/09 12:27:37;;;;;;;1.80;1.50;;;;;;;28.16;25.68;101407.04;104577;1295;71401;-84
2023/07/09 12:30:23;;;;;;;2.30;1.50;;;;;;;28.14;25.86;101405.90;104534;1298;73143;-85
2023/07/09 12:33:15;;;;;;;3.80;1.50;;;;;;;28.16;26.02;101403.63;104734;1287;59796;-85
2023/07/09 12:36:05;;;;;;;2.40;1.40;;;;;;;28.22;26.00;101403.24;105162;1287;61115;-85
2023/07/09 12:38:55;;;;;;;2.70;1.10;;;;;;;28.21;25.91;101402.91;105188;1287;74387;-85
2023/07/09 12:41:44;;;;;;;2.40;1.50;;;;;;;28.23;26.00;101403.98;105238;1287;66934;-86
2023/07/09 12:45:11;;;;;;;3.10;1.40;;;;;;;28.26;25.94;101399.23;105145;1287;72463;-86
2023/07/09 12:47:59;;;;;;;2.20;1.40;;;;;;;28.27;26.15;101395.41;105268;1287;59941;-86
2023/07/09 12:50:50;;;;;;;2.20;1.50;;;;;;;28.28;26.15;101396.02;105299;1287;61148;-85
2023/07/09 12:53:43;;;;;;;3.10;1.30;;;;;;;28.29;26.17;101391.64;105212;1288;77176;-86
2023/07/09 12:56:33;;;;;;;2.50;1.30;;;;;;;28.32;26.32;101393.16;105678;1287;68104;-85
2023/07/09 12:59:23;;;;;;;1.20;1.10;;;;;;;28.37;26.36;101385.71;105125;1288;71140;-85
2023/07/09 13:02:19;;;;;;;4.20;1.50;;;;;;;28.40;26.39;101384.10;105168;1292;61227;-84
2023/07/09 13:05:17;;;;;;;3.60;1.90;;;;;;;28.41;26.43;101385.07;105224;1293;60453;-84
2023/07/09 13:08:04;;;;;;;2.20;1.50;;;;;;;28.43;26.55;101382.27;105073;1287;73194;-85
2023/07/09 13:10:51;;;;;;;15.50;2.20;;;;;;;28.46;26.59;101375.46;105173;1287;71391;-85
2023/07/09 13:13:37;;;;;;;4.60;1.70;;;;;;;28.47;26.57;101376.74;105074;1292;71217;-85
2023/07/09 13:16:25;;;;;;;3.10;1.50;;;;;;;28.48;26.65;101377.94;105164;1287;59750;-85
2023/07/09 13:19:11;;;;;;;2.00;1.70;;;;;;;28.50;26.68;101378.17;105200;1287;61369;-84
2023/07/09 13:21:59;;;;;;;1.60;1.50;;;;;;;28.50;26.68;101381.13;105288;1291;73089;-84